Time;durP1;ratioP1;P1;durP2;ratioP2;P2;SDS_P1;SDS_P2;PMS_P1;PMS_P2;Temp;Humidity;BMP_temperature;BMP_pressure;BME280_temperature;BME280_humidity;BME280_pressure;Samples;Min_cycle;Max_cycle;Signal;HPM_P1;HPM_P2
2023/07/29 00:00:13;;;;;;;4.80;1.80;;;;;;;;;;5139952;27;20481;-64
2023/07/29 00:02:38;;;;;;;3.20;1.30;;;;;;;;;;5135583;27;20023;-64
2023/07/29 00:05:03;;;;;;;4.13;1.60;;;;;;;;;;5131629;27;20362;-63
2023/07/29 00:07:28;;;;;;;3.80;1.63;;;;;;;;;;5132633;27;20032;-63
2023/07/29 00:09:54;;;;;;;3.30;1.40;;;;;;;;;;5126067;27;20019;-62
2023/07/29 00:12:19;;;;;;;3.97;1.60;;;;;;;;;;5140954;27;20026;-63
2023/07/29 00:14:44;;;;;;;3.80;1.70;;;;;;;;;;5134172;27;20026;-63
2023/07/29 00:17:09;;;;;;;3.80;1.67;;;;;;;;;;5130258;27;20031;-62
2023/07/29 00:19:34;;;;;;;3.73;1.70;;;;;;;;;;5131702;27;20526;-64
2023/07/29 00:21:59;;;;;;;4.07;1.80;;;;;;;;;;5138163;27;20027;-62
2023/07/29 00:24:25;;;;;;;3.47;1.40;;;;;;;;;;5126140;27;20393;-63
2023/07/29 00:26:50;;;;;;;3.53;1.55;;;;;;;;;;5141560;27;20030;-64
2023/07/29 00:29:15;;;;;;;3.37;1.43;;;;;;;;;;5131375;27;20031;-63
2023/07/29 00:31:40;;;;;;;3.67;1.57;;;;;;;;;;5126535;27;20087;-63
2023/07/29 00:34:05;;;;;;;4.32;1.70;;;;;;;;;;5131743;27;20026;-63
2023/07/29 00:36:30;;;;;;;4.40;1.50;;;;;;;;;;5122850;27;20543;-63
2023/07/29 00:38:57;;;;;;;3.73;1.70;;;;;;;;;;5140088;27;20087;-62
2023/07/29 00:41:22;;;;;;;3.35;1.50;;;;;;;;;;5132492;27;20514;-62
2023/07/29 00:43:47;;;;;;;3.42;1.50;;;;;;;;;;5135484;27;20048;-64
2023/07/29 00:46:12;;;;;;;3.28;1.48;;;;;;;;;;5131865;27;20055;-63
2023/07/29 00:48:38;;;;;;;3.17;1.33;;;;;;;;;;5132364;27;20080;-63
2023/07/29 00:51:03;;;;;;;3.35;1.48;;;;;;;;;;5123892;27;20387;-63
2023/07/29 00:53:28;;;;;;;3.87;1.60;;;;;;;;;;5132675;27;20018;-63
2023/07/29 00:55:53;;;;;;;4.70;1.50;;;;;;;;;;5136522;27;20030;-64
2023/07/29 00:58:19;;;;;;;4.85;1.80;;;;;;;;;;5133190;27;20018;-63
2023/07/29 01:00:44;;;;;;;3.63;1.50;;;;;;;;;;5138316;27;20087;-63
2023/07/29 01:03:09;;;;;;;3.45;1.50;;;;;;;;;;5131393;27;20026;-63
2023/07/29 01:05:53;;;;;;;3.17;1.40;;;;;;;;;;5132393;27;20026;-63
2023/07/29 01:08:21;;;;;;;3.58;1.60;;;;;;;;;;5130696;27;20030;-63
2023/07/29 01:11:06;;;;;;;4.30;1.88;;;;;;;;;;5131826;27;20030;-64
2023/07/29 01:13:33;;;;;;;3.65;1.60;;;;;;;;;;5127786;27;20086;-64
2023/07/29 01:16:00;;;;;;;3.53;1.42;;;;;;;;;;5130903;27;20031;-63
2023/07/29 01:18:27;;;;;;;2.70;1.30;;;;;;;;;;5128799;27;20015;-63
2023/07/29 01:20:58;;;;;;;3.65;1.70;;;;;;;;;;5144208;27;20023;-62
2023/07/29 01:23:25;;;;;;;3.38;1.40;;;;;;;;;;5134410;27;20448;-64
2023/07/29 01:25:50;;;;;;;3.75;1.50;;;;;;;;;;5132397;27;20118;-63
2023/07/29 01:28:15;;;;;;;2.90;1.25;;;;;;;;;;5129303;27;20110;-63
2023/07/29 01:30:43;;;;;;;4.40;1.40;;;;;;;;;;5132702;27;20032;-63
2023/07/29 01:33:17;;;;;;;2.70;1.20;;;;;;;;;;5126505;27;20027;-63
2023/07/29 01:35:46;;;;;;;3.08;1.48;;;;;;;;;;5136156;27;20027;-62
2023/07/29 01:38:17;;;;;;;4.30;1.38;;;;;;;;;;5134272;27;20015;-63
2023/07/29 01:40:43;;;;;;;5.03;1.60;;;;;;;;;;5135907;27;20023;-63
2023/07/29 01:43:09;;;;;;;4.93;1.40;;;;;;;;;;5131028;27;20472;-63
2023/07/29 01:45:37;;;;;;;3.05;1.40;;;;;;;;;;5135851;27;20029;-64
2023/07/29 01:48:03;;;;;;;4.18;1.40;;;;;;;;;;5135707;27;20016;-64
2023/07/29 01:50:28;;;;;;;3.33;1.50;;;;;;;;;;5138646;27;20064;-64
2023/07/29 01:52:53;;;;;;;3.40;1.52;;;;;;;;;;5143463;27;20008;-63
2023/07/29 01:55:18;;;;;;;4.00;1.58;;;;;;;;;;5125766;27;20027;-64
2023/07/29 01:57:44;;;;;;;3.67;1.47;;;;;;;;;;5142876;27;20019;-64
2023/07/29 02:00:10;;;;;;;3.05;1.42;;;;;;;;;;5131185;27;20034;-65
2023/07/29 02:02:35;;;;;;;3.85;1.55;;;;;;;;;;5144134;27;20076;-64
2023/07/29 02:05:00;;;;;;;3.40;1.50;;;;;;;;;;5132409;27;20020;-63
2023/07/29 02:07:26;;;;;;;4.13;1.63;;;;;;;;;;5141987;27;20477;-62
2023/07/29 02:09:51;;;;;;;3.83;1.80;;;;;;;;;;5135537;27;20039;-63
2023/07/29 02:12:16;;;;;;;4.78;1.60;;;;;;;;;;5141497;27;20026;-62
2023/07/29 02:14:42;;;;;;;4.30;1.53;;;;;;;;;;5134739;27;20110;-62
2023/07/29 02:17:08;;;;;;;4.40;1.73;;;;;;;;;;5129670;27;20036;-63
2023/07/29 02:19:33;;;;;;;;;;;;;;;;;;5142041;27;20098;-64
2023/07/29 02:21:58;;;;;;;3.47;1.70;;;;;;;;;;5127781;27;19974;-63
2023/07/29 02:24:24;;;;;;;3.75;1.63;;;;;;;;;;5139954;27;20030;-61
2023/07/29 02:26:49;;;;;;;3.63;1.80;;;;;;;;;;5141801;27;20440;-61
2023/07/29 02:29:14;;;;;;;3.63;1.47;;;;;;;;;;5139440;27;20015;-64
2023/07/29 02:31:39;;;;;;;3.80;1.70;;;;;;;;;;5140226;27;20018;-64
2023/07/29 02:34:04;;;;;;;3.83;1.83;;;;;;;;;;5139553;27;20025;-64
2023/07/29 02:36:29;;;;;;;3.43;1.50;;;;;;;;;;5127476;27;20110;-64
2023/07/29 02:38:55;;;;;;;4.32;1.70;;;;;;;;;;5131233;27;20030;-64
2023/07/29 02:41:20;;;;;;;3.93;1.77;;;;;;;;;;5136656;27;20027;-64
2023/07/29 02:43:49;;;;;;;4.70;1.83;;;;;;;;;;5128623;27;20034;-64
2023/07/29 02:46:14;;;;;;;3.08;1.40;;;;;;;;;;5138809;27;20027;-63
2023/07/29 02:48:39;;;;;;;4.03;1.80;;;;;;;;;;5140968;27;20079;-63
2023/07/29 02:51:04;;;;;;;3.83;1.70;;;;;;;;;;5124406;27;20027;-64
2023/07/29 02:53:30;;;;;;;5.43;1.60;;;;;;;;;;5144182;27;20031;-63
2023/07/29 02:55:55;;;;;;;3.57;1.70;;;;;;;;;;5134359;27;20030;-62
2023/07/29 02:58:20;;;;;;;4.20;1.70;;;;;;;;;;5143843;27;20031;-62
2023/07/29 03:00:47;;;;;;;4.03;1.80;;;;;;;;;;5139460;27;20031;-63
2023/07/29 03:03:12;;;;;;;4.15;1.52;;;;;;;;;;5126257;27;20023;-62
2023/07/29 03:05:38;;;;;;;5.63;1.80;;;;;;;;;;5129963;27;20038;-64
2023/07/29 03:08:03;;;;;;;3.75;1.80;;;;;;;;;;5116451;27;20510;-65
2023/07/29 03:10:28;;;;;;;6.30;1.88;;;;;;;;;;5127874;27;20041;-63
2023/07/29 03:12:55;;;;;;;4.50;2.00;;;;;;;;;;5136727;27;20075;-64
2023/07/29 03:15:20;;;;;;;;;;;;;;;;;;5135372;27;20027;-64
2023/07/29 03:17:46;;;;;;;4.53;1.65;;;;;;;;;;5145757;27;20426;-63
2023/07/29 03:20:11;;;;;;;4.10;1.83;;;;;;;;;;5132970;27;20019;-64
2023/07/29 03:22:37;;;;;;;5.05;1.88;;;;;;;;;;5140347;27;20478;-64
2023/07/29 03:25:03;;;;;;;4.57;1.70;;;;;;;;;;5133162;27;20027;-63
2023/07/29 03:27:28;;;;;;;3.10;1.60;;;;;;;;;;5126169;27;20025;-63
2023/07/29 03:29:53;;;;;;;4.68;1.70;;;;;;;;;;5141258;27;20019;-63
2023/07/29 03:32:18;;;;;;;3.10;1.40;;;;;;;;;;5126937;27;20048;-64
2023/07/29 03:34:43;;;;;;;3.47;1.58;;;;;;;;;;5140246;27;20034;-64
2023/07/29 03:37:08;;;;;;;3.58;1.60;;;;;;;;;;5140315;27;20023;-63
2023/07/29 03:39:34;;;;;;;3.15;1.45;;;;;;;;;;5128215;27;20060;-64
2023/07/29 03:41:59;;;;;;;3.73;1.47;;;;;;;;;;5138035;27;20042;-63
2023/07/29 03:44:24;;;;;;;3.37;1.43;;;;;;;;;;5142868;27;20110;-61
2023/07/29 03:46:49;;;;;;;3.40;1.50;;;;;;;;;;5131248;27;20109;-63
2023/07/29 03:49:14;;;;;;;3.60;1.23;;;;;;;;;;5141041;27;20029;-62
2023/07/29 03:51:39;;;;;;;4.30;1.13;;;;;;;;;;5137196;27;20106;-63
2023/07/29 03:54:04;;;;;;;3.10;1.23;;;;;;;;;;5122008;27;20023;-64
2023/07/29 03:56:30;;;;;;;3.27;1.40;;;;;;;;;;5136717;27;20016;-64
2023/07/29 03:59:02;;;;;;;2.60;1.20;;;;;;;;;;5130841;27;20033;-64
2023/07/29 04:01:27;;;;;;;3.25;1.17;;;;;;;;;;5120181;27;20403;-63
2023/07/29 04:03:52;;;;;;;3.35;1.45;;;;;;;;;;5135636;27;20022;-62
2023/07/29 04:06:18;;;;;;;3.20;1.40;;;;;;;;;;5136594;27;20047;-64
2023/07/29 04:08:43;;;;;;;3.07;1.30;;;;;;;;;;5124963;27;20629;-62
2023/07/29 04:11:08;;;;;;;5.03;1.45;;;;;;;;;;5131558;27;20023;-63
2023/07/29 04:13:33;;;;;;;4.90;1.35;;;;;;;;;;5146194;27;20019;-61
2023/07/29 04:15:59;;;;;;;3.40;1.65;;;;;;;;;;5118580;27;20054;-63
2023/07/29 04:18:24;;;;;;;3.30;1.43;;;;;;;;;;5128808;27;20095;-61
2023/07/29 04:20:49;;;;;;;2.83;1.25;;;;;;;;;;5142549;27;20397;-64
2023/07/29 04:23:14;;;;;;;3.10;1.42;;;;;;;;;;5130876;27;20017;-63
2023/07/29 04:25:39;;;;;;;2.43;0.90;;;;;;;;;;5143693;27;20036;-63
2023/07/29 04:28:05;;;;;;;3.20;1.30;;;;;;;;;;5137224;27;20078;-63
2023/07/29 04:30:30;;;;;;;3.00;1.40;;;;;;;;;;5139633;27;20011;-64
2023/07/29 04:32:55;;;;;;;3.43;1.30;;;;;;;;;;5133960;27;20022;-64
2023/07/29 04:35:20;;;;;;;3.00;1.30;;;;;;;;;;5130946;27;20480;-64
2023/07/29 04:37:47;;;;;;;3.33;1.30;;;;;;;;;;5135991;27;20015;-63
2023/07/29 04:40:13;;;;;;;3.80;1.30;;;;;;;;;;5135268;27;20383;-63
2023/07/29 04:42:38;;;;;;;2.97;1.30;;;;;;;;;;5133615;27;20015;-62
2023/07/29 04:45:03;;;;;;;2.78;1.17;;;;;;;;;;5127799;27;20023;-62
2023/07/29 04:47:28;;;;;;;2.90;1.20;;;;;;;;;;5127727;27;20388;-63
2023/07/29 04:49:54;;;;;;;3.42;1.48;;;;;;;;;;5134475;27;20019;-63
2023/07/29 04:52:19;;;;;;;3.03;1.40;;;;;;;;;;5140663;27;20022;-63
2023/07/29 04:54:44;;;;;;;4.20;1.27;;;;;;;;;;5129724;27;20046;-63
2023/07/29 04:57:09;;;;;;;2.95;1.23;;;;;;;;;;5137845;27;20019;-62
2023/07/29 04:59:35;;;;;;;3.00;1.30;;;;;;;;;;5144094;27;20021;-64
2023/07/29 05:02:00;;;;;;;1.93;0.93;;;;;;;;;;5124781;27;20019;-64
2023/07/29 05:04:26;;;;;;;3.13;1.40;;;;;;;;;;5136224;27;20033;-65
2023/07/29 05:06:51;;;;;;;3.00;1.20;;;;;;;;;;5125311;27;20018;-62
2023/07/29 05:09:17;;;;;;;2.27;1.10;;;;;;;;;;5130021;27;20012;-63
2023/07/29 05:11:46;;;;;;;3.83;1.20;;;;;;;;;;5125415;27;20106;-62
2023/07/29 05:14:13;;;;;;;4.85;1.20;;;;;;;;;;5129443;27;20420;-64
2023/07/29 05:16:38;;;;;;;;;;;;;;;;;;5133365;27;20054;-64
2023/07/29 05:19:03;;;;;;;4.47;1.40;;;;;;;;;;5134576;27;19923;-63
2023/07/29 05:21:28;;;;;;;3.00;1.20;;;;;;;;;;5129969;27;20023;-64
2023/07/29 05:23:53;;;;;;;2.13;1.00;;;;;;;;;;5146476;27;20394;-64
2023/07/29 05:26:18;;;;;;;3.77;1.30;;;;;;;;;;5133897;27;20015;-64
2023/07/29 05:28:44;;;;;;;5.07;1.20;;;;;;;;;;5145939;27;20026;-64
2023/07/29 05:31:09;;;;;;;3.30;1.20;;;;;;;;;;5140993;27;20031;-63
2023/07/29 05:33:36;;;;;;;2.30;1.10;;;;;;;;;;5137912;27;20026;-63
2023/07/29 05:36:01;;;;;;;2.92;1.10;;;;;;;;;;5134191;27;20475;-62
2023/07/29 05:38:26;;;;;;;2.80;1.27;;;;;;;;;;5117918;27;20087;-62
2023/07/29 05:40:51;;;;;;;2.93;1.20;;;;;;;;;;5117928;27;20018;-62
2023/07/29 05:43:16;;;;;;;3.37;1.03;;;;;;;;;;5122297;27;20012;-62
2023/07/29 05:45:41;;;;;;;3.33;1.20;;;;;;;;;;5150481;27;20022;-63
2023/07/29 05:48:07;;;;;;;2.77;1.13;;;;;;;;;;5139513;27;20118;-63
2023/07/29 05:50:32;;;;;;;2.38;1.05;;;;;;;;;;5127341;27;20030;-63
2023/07/29 05:52:57;;;;;;;3.42;0.90;;;;;;;;;;5142875;27;20045;-63
2023/07/29 05:55:22;;;;;;;2.53;1.00;;;;;;;;;;5135509;27;20058;-61
2023/07/29 05:57:47;;;;;;;2.10;1.00;;;;;;;;;;5126763;27;20075;-62
2023/07/29 06:00:13;;;;;;;2.17;1.00;;;;;;;;;;5127772;27;20072;-63
2023/07/29 06:02:38;;;;;;;2.13;0.83;;;;;;;;;;5145047;27;20052;-63
2023/07/29 06:05:04;;;;;;;2.13;0.90;;;;;;;;;;5146481;27;20114;-61
2023/07/29 06:07:30;;;;;;;;;;;;;;;;;;5144109;27;20045;-64
2023/07/29 06:09:55;;;;;;;1.42;0.60;;;;;;;;;;5127978;27;19919;-63
2023/07/29 06:12:21;;;;;;;4.13;0.87;;;;;;;;;;5133691;27;20390;-61
2023/07/29 06:14:46;;;;;;;2.20;0.80;;;;;;;;;;5122434;27;20058;-63
2023/07/29 06:17:11;;;;;;;3.08;1.10;;;;;;;;;;5144471;27;20043;-65
2023/07/29 06:19:36;;;;;;;;;;;;;;;;;;5151591;27;20087;-63
2023/07/29 06:22:01;;;;;;;2.42;0.90;;;;;;;;;;5140105;27;19903;-62
2023/07/29 06:24:26;;;;;;;2.10;0.88;;;;;;;;;;5132526;27;20031;-64
2023/07/29 06:26:52;;;;;;;2.63;0.80;;;;;;;;;;5124701;27;20043;-64
2023/07/29 06:29:17;;;;;;;;;;;;;;;;;;5132819;27;20491;-64
2023/07/29 06:31:42;;;;;;;1.42;0.70;;;;;;;;;;5129399;27;19918;-63
2023/07/29 06:34:07;;;;;;;2.97;0.83;;;;;;;;;;5129017;27;20893;-64
2023/07/29 06:36:32;;;;;;;1.88;0.80;;;;;;;;;;5127672;27;20041;-62
2023/07/29 06:38:57;;;;;;;;;;;;;;;;;;5131096;27;20482;-64
2023/07/29 06:41:22;;;;;;;2.03;0.88;;;;;;;;;;5131311;27;20381;-61
2023/07/29 06:43:48;;;;;;;1.97;0.87;;;;;;;;;;5118225;27;20023;-64
2023/07/29 06:46:13;;;;;;;2.03;0.90;;;;;;;;;;5116517;27;20030;-63
2023/07/29 06:48:38;;;;;;;2.30;0.83;;;;;;;;;;5123281;27;20087;-63
2023/07/29 06:51:03;;;;;;;;;;;;;;;;;;5134841;27;20034;-62
2023/07/29 06:53:28;;;;;;;1.88;0.88;;;;;;;;;;5130579;27;19994;-62
2023/07/29 06:55:53;;;;;;;;;;;;;;;;;;5126403;27;20030;-62
2023/07/29 06:58:19;;;;;;;1.50;0.70;;;;;;;;;;5123916;27;19916;-63
2023/07/29 07:00:44;;;;;;;2.25;0.90;;;;;;;;;;5137367;27;20034;-64
2023/07/29 07:03:09;;;;;;;;;;;;;;;;;;5131224;27;20057;-64
2023/07/29 07:05:34;;;;;;;2.88;0.90;;;;;;;;;;5128640;27;19903;-63
2023/07/29 07:07:59;;;;;;;2.55;0.90;;;;;;;;;;5139355;27;20558;-63
2023/07/29 07:10:24;;;;;;;;;;;;;;;;;;5132601;27;20019;-63
2023/07/29 07:12:49;;;;;;;2.30;0.85;;;;;;;;;;5136734;27;19911;-62
2023/07/29 07:15:15;;;;;;;2.33;0.90;;;;;;;;;;5139295;27;20030;-63
2023/07/29 07:17:40;;;;;;;2.03;0.90;;;;;;;;;;5135430;27;20062;-63
2023/07/29 07:20:05;;;;;;;;;;;;;;;;;;5150043;27;20030;-62
2023/07/29 07:22:30;;;;;;;2.42;0.90;;;;;;;;;;5122451;27;19911;-62
2023/07/29 07:24:55;;;;;;;2.80;0.90;;;;;;;;;;5138705;27;20023;-64
2023/07/29 07:27:20;;;;;;;;;;;;;;;;;;5153792;27;20071;-63
2023/07/29 07:29:45;;;;;;;2.92;0.90;;;;;;;;;;5154496;27;19910;-64
2023/07/29 07:32:10;;;;;;;;;;;;;;;;;;5154736;27;20454;-64
2023/07/29 07:34:36;;;;;;;2.40;0.90;;;;;;;;;;5132883;27;19940;-64
2023/07/29 07:37:01;;;;;;;2.17;0.90;;;;;;;;;;5133635;27;20007;-62
2023/07/29 07:39:26;;;;;;;2.23;0.90;;;;;;;;;;5133662;27;20120;-62
2023/07/29 07:41:51;;;;;;;2.40;1.07;;;;;;;;;;5132930;27;20015;-61
2023/07/29 07:44:17;;;;;;;2.77;1.00;;;;;;;;;;5114083;27;20560;-62
2023/07/29 07:46:43;;;;;;;2.25;0.80;;;;;;;;;;5112353;27;20024;-62
2023/07/29 07:49:08;;;;;;;2.50;0.90;;;;;;;;;;5118827;27;20509;-64
2023/07/29 07:51:33;;;;;;;1.85;0.82;;;;;;;;;;5128924;27;20473;-64
2023/07/29 07:53:58;;;;;;;;;;;;;;;;;;5113697;27;20031;-64
2023/07/29 07:56:23;;;;;;;2.15;0.85;;;;;;;;;;5131899;27;20368;-62
2023/07/29 07:58:48;;;;;;;2.77;1.00;;;;;;;;;;5133351;27;20023;-64
2023/07/29 08:01:14;;;;;;;2.70;0.97;;;;;;;;;;5132524;27;20047;-62
2023/07/29 08:03:39;;;;;;;;;;;;;;;;;;5132012;27;20034;-63
2023/07/29 08:06:04;;;;;;;2.33;1.00;;;;;;;;;;5132876;27;19960;-63
2023/07/29 08:08:29;;;;;;;2.10;0.90;;;;;;;;;;5153661;27;20019;-64
2023/07/29 08:10:54;;;;;;;;;;;;;;;;;;5154174;27;20021;-62
2023/07/29 08:13:20;;;;;;;1.90;0.87;;;;;;;;;;5152818;27;19903;-64
2023/07/29 08:15:45;;;;;;;;;;;;;;;;;;5153894;27;20110;-64
2023/07/29 08:18:10;;;;;;;1.83;0.75;;;;;;;;;;5153242;27;20399;-62
2023/07/29 08:20:35;;;;;;;1.80;0.88;;;;;;;;;;5153510;27;20022;-63
2023/07/29 08:23:00;;;;;;;2.30;0.90;;;;;;;;;;5153609;27;20435;-62
2023/07/29 08:25:25;;;;;;;1.77;0.70;;;;;;;;;;5155946;27;20022;-63
2023/07/29 08:27:51;;;;;;;1.60;0.60;;;;;;;;;;5154137;27;20026;-64
2023/07/29 08:30:16;;;;;;;;;;;;;;;;;;5154770;27;20060;-63
2023/07/29 08:32:41;;;;;;;1.50;0.60;;;;;;;;;;5140527;27;19940;-64
2023/07/29 08:35:06;;;;;;;1.40;0.60;;;;;;;;;;5132150;27;20026;-62
2023/07/29 08:37:32;;;;;;;1.23;0.60;;;;;;;;;;5123354;27;20016;-63
2023/07/29 08:39:57;;;;;;;1.87;0.67;;;;;;;;;;5111406;27;20028;-62
2023/07/29 08:42:23;;;;;;;2.15;0.80;;;;;;;;;;5111507;28;20035;-64
2023/07/29 08:44:48;;;;;;;;;;;;;;;;;;5111261;27;20059;-64
2023/07/29 08:47:13;;;;;;;1.40;0.70;;;;;;;;;;5111557;28;19903;-62
2023/07/29 08:49:39;;;;;;;1.90;0.70;;;;;;;;;;5110720;28;20402;-63
2023/07/29 08:52:04;;;;;;;1.55;0.60;;;;;;;;;;5110522;27;20433;-62
2023/07/29 08:54:29;;;;;;;1.63;0.60;;;;;;;;;;5110634;27;20471;-62
2023/07/29 08:56:55;;;;;;;1.40;0.63;;;;;;;;;;5111263;28;20025;-63
2023/07/29 08:59:20;;;;;;;3.63;0.80;;;;;;;;;;5111328;28;20039;-64
2023/07/29 09:01:45;;;;;;;;;;;;;;;;;;5111471;27;20034;-63
2023/07/29 09:04:10;;;;;;;1.77;0.70;;;;;;;;;;5111196;28;19959;-64
2023/07/29 09:06:35;;;;;;;;;;;;;;;;;;5111869;28;20132;-63
2023/07/29 09:09:00;;;;;;;2.03;0.80;;;;;;;;;;5111459;28;19911;-64
2023/07/29 09:11:25;;;;;;;;;;;;;;;;;;5120961;27;20091;-63
2023/07/29 09:13:51;;;;;;;1.90;0.75;;;;;;;;;;5116030;27;19903;-64
2023/07/29 09:16:16;;;;;;;;;;;;;;;;;;5111709;28;20016;-64
2023/07/29 09:18:41;;;;;;;1.83;0.80;;;;;;;;;;5111787;28;21433;-64
2023/07/29 09:21:06;;;;;;;;;;;;;;;;;;5132479;27;20030;-64
2023/07/29 09:23:44;;;;;;;2.72;1.00;;;;;;;;;;5131058;27;19954;-61
2023/07/29 09:26:09;;;;;;;2.85;0.98;;;;;;;;;;5131440;27;20102;-60
2023/07/29 09:28:35;;;;;;;;;;;;;;;;;;5132065;27;20043;-63
2023/07/29 09:31:00;;;;;;;2.70;1.10;;;;;;;;;;5131503;28;19960;-63
2023/07/29 09:33:25;;;;;;;;;;;;;;;;;;5131767;27;20090;-63
2023/07/29 09:35:50;;;;;;;2.65;1.00;;;;;;;;;;5131453;27;19957;-62
2023/07/29 09:38:16;;;;;;;;;;;;;;;;;;5133033;27;20436;-64
2023/07/29 09:40:41;;;;;;;3.27;1.00;;;;;;;;;;5132693;27;19982;-61
2023/07/29 09:43:06;;;;;;;;;;;;;;;;;;5132312;27;20508;-62
2023/07/29 09:45:33;;;;;;;2.47;0.90;;;;;;;;;;5132564;27;20320;-61
2023/07/29 09:47:58;;;;;;;2.50;1.08;;;;;;;;;;5132568;27;20019;-62
2023/07/29 09:50:24;;;;;;;;;;;;;;;;;;5133146;27;20109;-61
2023/07/29 09:52:50;;;;;;;3.03;1.13;;;;;;;;;;5132752;27;19911;-60
2023/07/29 09:55:19;;;;;;;2.08;0.80;;;;;;;;;;5133293;27;20627;-63
2023/07/29 09:57:45;;;;;;;3.15;1.00;;;;;;;;;;5122833;27;20019;-63
2023/07/29 10:00:11;;;;;;;;;;;;;;;;;;5111522;28;20015;-61
2023/07/29 10:02:37;;;;;;;3.30;0.90;;;;;;;;;;5110873;28;20344;-64
2023/07/29 10:05:03;;;;;;;2.42;0.98;;;;;;;;;;5110868;28;20105;-63
2023/07/29 10:07:29;;;;;;;2.20;0.82;;;;;;;;;;5121075;27;20019;-62
2023/07/29 10:09:54;;;;;;;;;;;;;;;;;;5156794;27;20497;-65
2023/07/29 10:12:19;;;;;;;1.92;0.80;;;;;;;;;;5154645;27;19952;-64
2023/07/29 10:14:46;;;;;;;4.00;0.93;;;;;;;;;;5155549;27;20524;-62
2023/07/29 10:17:11;;;;;;;3.25;1.00;;;;;;;;;;5155796;27;20036;-64
2023/07/29 10:19:37;;;;;;;3.33;1.20;;;;;;;;;;5155434;27;20023;-63
2023/07/29 10:22:02;;;;;;;1.80;0.80;;;;;;;;;;5155911;27;20080;-62
2023/07/29 10:24:30;;;;;;;2.25;0.90;;;;;;;;;;5155483;27;20023;-63
2023/07/29 10:26:59;;;;;;;2.50;1.00;;;;;;;;;;5155400;27;20109;-62
2023/07/29 10:29:28;;;;;;;3.33;0.98;;;;;;;;;;5121768;27;20487;-62
2023/07/29 10:31:54;;;;;;;2.33;0.90;;;;;;;;;;5114268;27;20110;-62
2023/07/29 10:34:20;;;;;;;2.50;0.80;;;;;;;;;;5113582;27;20023;-63
2023/07/29 10:36:47;;;;;;;2.80;0.90;;;;;;;;;;5113972;28;20428;-62
2023/07/29 10:39:12;;;;;;;2.17;0.88;;;;;;;;;;5113993;28;20035;-65
2023/07/29 10:41:56;;;;;;;2.80;0.90;;;;;;;;;;5113962;28;20085;-64
2023/07/29 10:44:40;;;;;;;2.75;0.88;;;;;;;;;;5113620;28;20019;-63
2023/07/29 10:47:34;;;;;;;2.25;0.82;;;;;;;;;;5113048;28;20027;-62
2023/07/29 10:49:59;;;;;;;2.85;0.80;;;;;;;;;;5099753;28;20039;-63
2023/07/29 10:52:33;;;;;;;3.63;0.90;;;;;;;;;;5127265;27;20015;-63
2023/07/29 10:54:59;;;;;;;2.67;1.00;;;;;;;;;;5133746;27;20452;-64
2023/07/29 10:57:24;;;;;;;;;;;;;;;;;;5118467;27;20027;-64
2023/07/29 10:59:56;;;;;;;2.47;1.05;;;;;;;;;;5113631;28;19914;-62
2023/07/29 11:02:21;;;;;;;;;;;;;;;;;;5114005;28;20007;-64
2023/07/29 11:04:52;;;;;;;2.45;1.00;;;;;;;;;;5112935;28;19916;-63
2023/07/29 11:07:23;;;;;;;3.33;1.17;;;;;;;;;;5113734;28;20052;-65
2023/07/29 11:09:48;;;;;;;4.60;1.20;;;;;;;;;;5113547;28;20027;-62
2023/07/29 11:12:32;;;;;;;2.27;0.90;;;;;;;;;;5112749;27;20028;-63
2023/07/29 11:14:57;;;;;;;2.85;0.98;;;;;;;;;;5113226;28;20098;-64
2023/07/29 11:17:22;;;;;;;;;;;;;;;;;;5113653;28;20015;-64
2023/07/29 11:19:48;;;;;;;3.15;0.80;;;;;;;;;;5113454;28;19999;-62
2023/07/29 11:22:15;;;;;;;3.55;1.08;;;;;;;;;;5124317;27;20067;-62
2023/07/29 11:24:43;;;;;;;4.93;1.10;;;;;;;;;;5125247;27;20022;-61
2023/07/29 11:27:11;;;;;;;3.10;0.85;;;;;;;;;;5131370;27;20106;-64
2023/07/29 11:29:36;;;;;;;3.95;0.90;;;;;;;;;;5141808;27;20026;-63
2023/07/29 11:32:01;;;;;;;;;;;;;;;;;;5125146;27;20016;-63
2023/07/29 11:34:32;;;;;;;4.65;0.90;;;;;;;;;;5136119;27;19914;-62
2023/07/29 11:36:58;;;;;;;4.07;1.00;;;;;;;;;;5132585;27;20153;-63
2023/07/29 11:39:23;;;;;;;;;;;;;;;;;;5129908;27;20103;-63
2023/07/29 11:41:48;;;;;;;3.42;1.17;;;;;;;;;;5134361;27;19916;-63
2023/07/29 11:44:13;;;;;;;;;;;;;;;;;;5132809;27;20050;-63
2023/07/29 11:46:39;;;;;;;1.95;0.80;;;;;;;;;;5136519;27;19923;-64
2023/07/29 11:49:04;;;;;;;3.35;0.82;;;;;;;;;;5125589;27;20403;-63
2023/07/29 11:51:29;;;;;;;;;;;;;;;;;;5127466;27;20414;-63
2023/07/29 11:53:54;;;;;;;2.22;0.80;;;;;;;;;;5122021;27;19967;-63
2023/07/29 11:56:19;;;;;;;3.23;1.00;;;;;;;;;;5119748;27;20031;-64
2023/07/29 11:58:45;;;;;;;;;;;;;;;;;;5115331;27;20034;-64
2023/07/29 12:01:10;;;;;;;2.17;0.80;;;;;;;;;;5118401;27;19965;-61
2023/07/29 12:03:35;;;;;;;2.20;0.88;;;;;;;;;;5116970;27;20205;-61
2023/07/29 12:06:00;;;;;;;;;;;;;;;;;;5131163;27;20019;-62
2023/07/29 12:08:26;;;;;;;2.25;0.90;;;;;;;;;;5141345;27;19906;-62
2023/07/29 12:10:51;;;;;;;;;;;;;;;;;;5148769;27;20018;-60
2023/07/29 12:13:16;;;;;;;4.72;1.05;;;;;;;;;;5116061;27;19912;-62
2023/07/29 12:15:41;;;;;;;;;;;;;;;;;;5131373;27;20038;-62
2023/07/29 12:18:06;;;;;;;3.30;1.00;;;;;;;;;;5130155;27;19912;-63
2023/07/29 12:20:31;;;;;;;;;;;;;;;;;;5116826;27;20324;-62
2023/07/29 12:22:57;;;;;;;4.45;1.10;;;;;;;;;;5116387;27;20000;-61
2023/07/29 12:25:23;;;;;;;3.90;1.00;;;;;;;;;;5133037;27;20063;-61
2023/07/29 12:27:48;;;;;;;;;;;;;;;;;;5129236;27;20424;-63
2023/07/29 12:30:13;;;;;;;5.07;1.00;;;;;;;;;;5122943;27;19911;-62
2023/07/29 12:32:38;;;;;;;;;;;;;;;;;;5125036;27;20025;-62
2023/07/29 12:35:09;;;;;;;4.43;0.93;;;;;;;;;;5132786;27;19920;-62
2023/07/29 12:37:34;;;;;;;3.03;0.93;;;;;;;;;;5118845;27;20634;-62
2023/07/29 12:39:59;;;;;;;;;;;;;;;;;;5127984;27;20011;-62
2023/07/29 12:42:24;;;;;;;4.38;1.15;;;;;;;;;;5130352;27;19910;-63
2023/07/29 12:44:49;;;;;;;2.33;0.90;;;;;;;;;;5124637;27;20091;-63
2023/07/29 12:47:14;;;;;;;;;;;;;;;;;;5137386;27;20509;-63
2023/07/29 12:49:40;;;;;;;2.20;0.82;;;;;;;;;;5122610;27;19976;-63
2023/07/29 12:52:05;;;;;;;;;;;;;;;;;;5134316;27;20024;-62
2023/07/29 12:54:30;;;;;;;3.90;0.80;;;;;;;;;;5110841;28;20359;-63
2023/07/29 12:56:55;;;;;;;;;;;;;;;;;;5118408;27;20023;-61
2023/07/29 12:59:20;;;;;;;2.30;0.80;;;;;;;;;;5132283;27;20302;-62
2023/07/29 13:01:45;;;;;;;;;;;;;;;;;;5132604;27;20475;-62
2023/07/29 13:04:11;;;;;;;4.50;0.90;;;;;;;;;;5131110;27;19917;-63
2023/07/29 13:06:36;;;;;;;;;;;;;;;;;;5132592;27;20022;-64
2023/07/29 13:09:01;;;;;;;4.05;0.90;;;;;;;;;;5131754;27;19910;-63
2023/07/29 13:11:26;;;;;;;4.33;0.90;;;;;;;;;;5131773;27;20023;-61
2023/07/29 13:13:51;;;;;;;;;;;;;;;;;;5131738;27;20538;-61
2023/07/29 13:16:16;;;;;;;1.88;0.73;;;;;;;;;;5131905;27;20362;-62
2023/07/29 13:18:43;;;;;;;2.65;0.90;;;;;;;;;;5130638;27;20019;-64
2023/07/29 13:21:08;;;;;;;3.72;0.82;;;;;;;;;;5132052;27;20110;-63
2023/07/29 13:23:33;;;;;;;;;;;;;;;;;;5131758;27;20127;-63
2023/07/29 13:25:58;;;;;;;2.88;0.90;;;;;;;;;;5131655;28;19942;-63
2023/07/29 13:28:23;;;;;;;;;;;;;;;;;;5132560;28;20092;-63
2023/07/29 13:30:48;;;;;;;2.17;0.90;;;;;;;;;;5131394;27;19925;-63
2023/07/29 13:33:14;;;;;;;2.30;0.80;;;;;;;;;;5131108;28;20054;-63
2023/07/29 13:35:39;;;;;;;;;;;;;;;;;;5132231;28;20023;-63
2023/07/29 13:38:04;;;;;;;3.80;0.73;;;;;;;;;;5131559;27;19907;-62
2023/07/29 13:40:29;;;;;;;;;;;;;;;;;;5122808;27;20467;-62
2023/07/29 13:42:54;;;;;;;2.38;0.90;;;;;;;;;;5114286;28;19996;-62
2023/07/29 13:45:20;;;;;;;;;;;;;;;;;;5115653;28;20478;-62
2023/07/29 13:47:45;;;;;;;2.08;0.77;;;;;;;;;;5115304;28;20431;-62
2023/07/29 13:50:10;;;;;;;3.95;0.90;;;;;;;;;;5116237;27;20026;-61
2023/07/29 13:52:35;;;;;;;;;;;;;;;;;;5143624;27;20054;-62
2023/07/29 13:55:00;;;;;;;2.72;0.75;;;;;;;;;;5141595;27;19998;-63
2023/07/29 13:57:25;;;;;;;;;;;;;;;;;;5134047;27;20034;-63
2023/07/29 13:59:51;;;;;;;2.60;0.80;;;;;;;;;;5125843;27;20664;-62
2023/07/29 14:02:16;;;;;;;;;;;;;;;;;;5136513;27;20098;-64
2023/07/29 14:04:41;;;;;;;1.85;0.73;;;;;;;;;;5137829;27;19918;-62
2023/07/29 14:07:06;;;;;;;;;;;;;;;;;;5145227;27;20517;-62
2023/07/29 14:09:31;;;;;;;2.05;0.90;;;;;;;;;;5144079;27;19946;-62
2023/07/29 14:11:56;;;;;;;;;;;;;;;;;;5142219;27;20141;-60
2023/07/29 14:14:21;;;;;;;2.85;0.80;;;;;;;;;;5136138;27;19943;-63
2023/07/29 14:16:47;;;;;;;;;;;;;;;;;;5132212;27;20486;-61
2023/07/29 14:19:12;;;;;;;2.50;0.87;;;;;;;;;;5128491;27;19922;-62
2023/07/29 14:21:37;;;;;;;;;;;;;;;;;;5122396;27;20023;-63
2023/07/29 14:24:02;;;;;;;1.88;0.73;;;;;;;;;;5128530;27;19916;-63
2023/07/29 14:26:27;;;;;;;;;;;;;;;;;;5129189;27;20049;-63
2023/07/29 14:28:52;;;;;;;2.25;0.85;;;;;;;;;;5146784;27;19964;-61
2023/07/29 14:31:18;;;;;;;2.13;0.73;;;;;;;;;;5131009;27;20028;-63
2023/07/29 14:33:43;;;;;;;;;;;;;;;;;;5129594;27;20072;-63
2023/07/29 14:36:08;;;;;;;3.45;0.80;;;;;;;;;;5129415;27;19916;-63
2023/07/29 14:38:33;;;;;;;5.40;0.70;;;;;;;;;;5118631;27;20031;-61
2023/07/29 14:40:58;;;;;;;1.93;0.73;;;;;;;;;;5142643;27;20038;-62
2023/07/29 14:43:23;;;;;;;2.30;0.73;;;;;;;;;;5155645;27;20101;-61
2023/07/29 14:45:48;;;;;;;;;;;;;;;;;;5156827;27;20025;-61
2023/07/29 14:48:14;;;;;;;1.63;0.60;;;;;;;;;;5130189;27;20294;-62
2023/07/29 14:50:39;;;;;;;2.67;0.90;;;;;;;;;;5140121;27;20027;-61
2023/07/29 14:53:04;;;;;;;;;;;;;;;;;;5140289;27;20459;-61